首页
METAR-TAF:

METAR-TAF

机场 :

哈尔滨太平国际机场

哈尔滨, 中华人民共和国

纬度: 45-45N, 经度: 126-46E, 海拔: 143米

当前天气观测

该预报发布于1小时和2分钟前的07:00 UTC
风速16节,风向西转西北,有时为25节阵风
温度 9°C
湿度 76%
气压 1007 hPa
能见度10公里或以上
多云层高于2300英尺
小雨

METAR: ZYHB 220700Z 29008G13MPS 9999 -RA BKN023 09/05 Q1007 NOSIG

时间: 16:02 (08:02 UTC)

预报

该预报发布于48分钟前的07:14 UTC
预报有效从22日的 06点(UTC)到 23日的 06点(UTC)
风速14节,风向西,有时为27节阵风
能見度: 6000
散云层高于3000英尺
短暂存在
从 22日的 08点(UTC)到 22日的 12点(UTC)
少量云层高于2600英尺, 积雨云.
多云层高于3000英尺
雷暴, 小雨
成为
从 22日的 16点(UTC)到 22日的 18点(UTC)
风速10节,风向南转西南

TAF: ZYHB 220714Z 2206/2306 27007G14MPS 6000 SCT030 TX22/2206Z TN05/2221Z TEMPO 2208/2212 -TSRA FEW026CB BKN030 BECMG 2216/2218 21005MPS

超过4000个机场的气象观测和天气预报(METAR&TAF报告)。

可查询的气象台以黄色和红色小点在地图上表示。

将鼠标移到小点上方,可查看气象台名称。

然后点击查看天气观测和预报。

如需切换地图:点击带黑十字的绿色按钮放大地图;点击带横线的绿色按钮缩小地图;或者点击绿色箭头查看邻近地区的地图。


METAR-TAF: